Time;durP1;ratioP1;P1;durP2;ratioP2;P2;SDS_P1;SDS_P2;PMS_P1;PMS_P2;Temp;Humidity;BMP_temperature;BMP_pressure;BME280_temperature;BME280_humidity;BME280_pressure;Samples;Min_cycle;Max_cycle;Signal;HPM_P1;HPM_P2
2022/10/04 00:01:28;;;;;;;5.88;4.32;;;;;;;14.41;100.00;101084.13;5067164;28;20503;-78
2022/10/04 00:04:06;;;;;;;6.03;4.30;;;;;;;14.42;100.00;101073.78;5062100;28;20064;-78
2022/10/04 00:06:31;;;;;;;5.78;4.45;;;;;;;14.42;100.00;101071.00;5062112;28;20566;-78
2022/10/04 00:08:59;;;;;;;6.43;4.15;;;;;;;14.42;100.00;101071.00;5082001;28;20028;-78
2022/10/04 00:11:27;;;;;;;4.60;3.90;;;;;;;14.41;100.00;101059.00;5080560;28;20051;-78
2022/10/04 00:13:57;;;;;;;4.97;4.40;;;;;;;14.39;100.00;101068.81;5041943;28;20028;-78
2022/10/04 00:16:30;;;;;;;6.82;4.68;;;;;;;14.40;100.00;101068.53;5046612;28;20039;-78
2022/10/04 00:19:13;;;;;;;7.93;4.50;;;;;;;14.35;100.00;101065.81;5091372;28;20077;-78
2022/10/04 00:22:07;;;;;;;6.25;4.50;;;;;;;14.35;100.00;101071.41;5079537;28;20044;-78
2022/10/04 00:24:33;;;;;;;;;;;;;;;14.36;100.00;101075.00;5065216;28;20025;-78
2022/10/04 00:27:21;;;;;;;7.75;4.00;;;;;;;14.33;100.00;101067.25;5048623;28;19915;-78
2022/10/04 00:30:02;;;;;;;5.40;4.68;;;;;;;14.34;100.00;101068.91;5028907;28;20028;-78
2022/10/04 00:32:40;;;;;;;7.22;4.30;;;;;;;14.36;100.00;101072.22;5093106;28;20119;-78
2022/10/04 00:35:44;;;;;;;5.80;3.70;;;;;;;14.36;100.00;101067.47;5073015;28;20025;-78
2022/10/04 00:38:14;;;;;;;6.22;3.92;;;;;;;14.35;100.00;101068.59;5040994;28;20040;-79
2022/10/04 00:40:54;;;;;;;5.68;4.05;;;;;;;14.35;100.00;101064.94;5101606;28;20023;-78
2022/10/04 00:43:29;;;;;;;5.22;4.30;;;;;;;14.37;100.00;101066.31;5044940;28;20048;-79
2022/10/04 00:46:04;;;;;;;4.53;3.90;;;;;;;14.36;100.00;101067.47;5075932;28;20072;-78
2022/10/04 00:48:34;;;;;;;6.78;3.83;;;;;;;14.35;100.00;101063.00;5039227;28;20024;-79
2022/10/04 00:51:29;;;;;;;6.80;4.22;;;;;;;14.35;100.00;101074.19;5051772;28;20032;-78
2022/10/04 00:53:56;;;;;;;7.45;4.70;;;;;;;14.36;100.00;101066.63;5090439;28;20043;-78
2022/10/04 00:56:44;;;;;;;8.40;4.20;;;;;;;14.37;100.00;101069.09;5081456;28;20439;-78
2022/10/04 00:59:36;;;;;;;6.95;3.88;;;;;;;14.35;100.00;101068.59;5085817;28;20068;-78
2022/10/04 01:02:30;;;;;;;7.75;4.90;;;;;;;14.33;100.00;101059.69;5065450;28;20032;-78
2022/10/04 01:05:05;;;;;;;6.22;4.40;;;;;;;14.35;100.00;101060.22;5049207;28;20028;-78
2022/10/04 01:07:42;;;;;;;6.18;4.25;;;;;;;14.35;100.00;101054.63;5064292;28;20102;-78
2022/10/04 01:10:17;;;;;;;5.45;4.13;;;;;;;14.33;100.00;101044.91;5048533;28;20051;-78
2022/10/04 01:13:06;;;;;;;5.57;4.28;;;;;;;14.34;100.00;101041.78;5063600;28;20042;-78
2022/10/04 01:15:51;;;;;;;5.38;4.70;;;;;;;14.34;100.00;101035.38;5098331;28;20028;-78
2022/10/04 01:18:20;;;;;;;4.85;3.75;;;;;;;14.30;100.00;101035.97;5066465;28;20306;-78
2022/10/04 01:20:56;;;;;;;5.28;4.63;;;;;;;14.25;100.00;101032.44;5069541;28;20036;-78
2022/10/04 01:23:36;;;;;;;5.18;4.30;;;;;;;14.24;100.00;101020.44;5064090;28;20036;-78
2022/10/04 01:26:06;;;;;;;5.97;4.65;;;;;;;14.23;100.00;101023.53;5064713;28;20507;-78
2022/10/04 01:28:32;;;;;;;7.25;5.35;;;;;;;14.22;100.00;101016.31;5080793;28;20032;-78
2022/10/04 01:30:58;;;;;;;6.25;4.18;;;;;;;14.19;100.00;101022.50;5068115;28;20035;-78
2022/10/04 01:33:24;;;;;;;8.25;4.50;;;;;;;14.17;100.00;101017.22;5080691;28;20024;-78
2022/10/04 01:35:49;;;;;;;4.82;4.20;;;;;;;14.17;100.00;101025.59;5063862;28;20055;-78
2022/10/04 01:38:15;;;;;;;8.80;5.00;;;;;;;14.16;100.00;101028.72;5084184;28;20027;-78
2022/10/04 01:40:52;;;;;;;10.85;4.72;;;;;;;14.15;100.00;101027.03;5084783;28;20035;-78
2022/10/04 01:43:22;;;;;;;8.10;4.80;;;;;;;14.12;100.00;101031.25;5064921;28;20057;-78
2022/10/04 01:45:50;;;;;;;6.97;4.95;;;;;;;14.12;100.00;101024.84;5045215;28;20043;-78
2022/10/04 01:48:21;;;;;;;6.15;4.75;;;;;;;14.12;100.00;101027.66;5069758;28;20067;-78
2022/10/04 01:51:07;;;;;;;6.13;5.15;;;;;;;14.12;100.00;101016.47;5079957;28;20044;-78
2022/10/04 01:53:40;;;;;;;6.00;4.90;;;;;;;14.11;100.00;101020.41;5079881;28;20391;-78
2022/10/04 01:56:14;;;;;;;7.10;5.22;;;;;;;14.12;100.00;101017.28;5050880;28;20055;-78
2022/10/04 01:58:46;;;;;;;8.15;5.22;;;;;;;14.15;100.00;101010.28;5077052;28;20081;-78
2022/10/04 02:01:34;;;;;;;9.73;5.57;;;;;;;14.14;100.00;101005.84;5030598;28;20039;-78
2022/10/04 02:04:00;;;;;;;6.93;5.60;;;;;;;14.15;100.00;101005.53;5063108;28;20537;-78
2022/10/04 02:06:26;;;;;;;6.78;4.78;;;;;;;14.13;100.00;100993.00;5046516;28;20480;-78
2022/10/04 02:08:56;;;;;;;7.05;5.10;;;;;;;14.14;100.00;100997.44;5029705;28;20028;-78
2022/10/04 02:11:22;;;;;;;7.65;6.32;;;;;;;14.14;100.00;100991.88;5077615;28;20115;-78
2022/10/04 02:13:48;;;;;;;5.38;4.80;;;;;;;14.13;100.00;100988.25;5075354;28;20120;-78
2022/10/04 02:16:14;;;;;;;7.65;5.75;;;;;;;14.14;100.00;100986.28;5070544;28;20058;-78
2022/10/04 02:18:42;;;;;;;8.48;5.43;;;;;;;14.12;100.00;100982.97;5063062;28;20032;-78
2022/10/04 02:21:07;;;;;;;6.85;5.35;;;;;;;14.13;100.00;100979.03;5030019;28;20058;-78
2022/10/04 02:23:33;;;;;;;6.35;5.35;;;;;;;14.13;100.00;100974.28;5062629;28;20528;-77
2022/10/04 02:26:03;;;;;;;6.20;4.85;;;;;;;14.15;100.00;100979.53;5050003;28;20563;-78
2022/10/04 02:28:29;;;;;;;6.88;4.95;;;;;;;14.15;100.00;100963.63;5079318;28;20024;-78
2022/10/04 02:33:42;;;;;;;6.25;4.60;;;;;;;14.17;100.00;100963.31;5097764;28;20486;-78
2022/10/04 02:36:08;;;;;;;6.60;4.50;;;;;;;14.17;100.00;100954.94;5042812;28;20565;-78
2022/10/04 02:38:40;;;;;;;5.25;4.00;;;;;;;14.15;100.00;100958.06;5050515;28;20020;-78
2022/10/04 02:41:35;;;;;;;6.63;4.78;;;;;;;14.13;100.00;100951.94;5063306;28;20474;-77
2022/10/04 02:44:15;;;;;;;6.05;5.22;;;;;;;14.15;100.00;100955.25;5062192;28;20036;-78
2022/10/04 02:46:43;;;;;;;5.43;4.50;;;;;;;14.15;100.00;100954.41;5054524;28;20112;-78
2022/10/04 02:49:18;;;;;;;4.40;4.00;;;;;;;14.17;100.00;100952.16;5080226;28;20031;-78
2022/10/04 02:51:48;;;;;;;6.70;4.95;;;;;;;14.18;100.00;100945.41;5071201;28;20035;-78
2022/10/04 02:54:15;;;;;;;6.07;4.85;;;;;;;14.18;100.00;100951.00;5062507;28;20107;-78
2022/10/04 02:56:41;;;;;;;6.38;4.68;;;;;;;14.19;100.00;100949.88;5089902;28;20084;-78
2022/10/04 02:59:06;;;;;;;5.90;5.30;;;;;;;14.17;100.00;100949.34;5046782;28;20036;-79
2022/10/04 03:01:42;;;;;;;6.68;4.68;;;;;;;14.17;100.00;100943.75;5062271;28;20377;-78
2022/10/04 03:04:10;;;;;;;6.55;4.30;;;;;;;14.15;100.00;100943.22;5063021;28;20047;-78
2022/10/04 03:06:36;;;;;;;5.82;4.55;;;;;;;14.13;100.00;100942.75;5106162;28;20431;-78
2022/10/04 03:09:02;;;;;;;7.95;4.68;;;;;;;14.17;100.00;100944.59;5061855;28;20024;-78
2022/10/04 03:11:34;;;;;;;6.18;4.60;;;;;;;14.16;100.00;100942.13;5069765;28;20114;-78
2022/10/04 03:13:59;;;;;;;8.43;4.55;;;;;;;14.15;100.00;100941.28;5080542;28;20024;-78
2022/10/04 03:16:25;;;;;;;6.65;4.30;;;;;;;14.12;100.00;100933.50;5066445;28;20039;-78
2022/10/04 03:18:52;;;;;;;6.47;4.30;;;;;;;14.15;100.00;100932.06;5061979;28;20027;-79
2022/10/04 03:21:18;;;;;;;5.50;4.32;;;;;;;14.14;100.00;100933.22;5056531;28;20068;-78
2022/10/04 03:23:43;;;;;;;5.53;4.70;;;;;;;14.15;100.00;100932.06;5054205;28;20027;-78
2022/10/04 03:26:31;;;;;;;7.00;4.97;;;;;;;14.13;100.00;100931.56;5048633;28;20024;-78
2022/10/04 03:28:57;;;;;;;8.27;4.68;;;;;;;14.15;100.00;100934.84;5049080;28;20024;-79
2022/10/04 03:31:23;;;;;;;5.20;4.18;;;;;;;14.12;100.00;100932.69;5056333;28;20036;-78
2022/10/04 03:33:48;;;;;;;6.80;5.05;;;;;;;14.13;100.00;100934.34;5028069;28;20016;-78
2022/10/04 03:36:15;;;;;;;8.15;5.50;;;;;;;14.09;100.00;100936.91;5061779;28;20020;-79
2022/10/04 03:38:41;;;;;;;5.28;4.70;;;;;;;14.11;100.00;100936.63;5035451;28;20023;-79
2022/10/04 03:41:07;;;;;;;5.93;4.65;;;;;;;14.12;100.00;100943.84;5097815;28;20073;-78
2022/10/04 03:43:33;;;;;;;7.95;5.43;;;;;;;14.10;100.00;100946.97;5048182;28;20031;-78
2022/10/04 03:45:59;;;;;;;6.15;4.78;;;;;;;14.11;100.00;100936.63;5026172;28;20491;-78
2022/10/04 03:48:36;;;;;;;8.32;4.97;;;;;;;14.09;100.00;100943.31;5068837;28;20102;-78
2022/10/04 03:51:03;;;;;;;7.25;4.07;;;;;;;14.10;100.00;100941.38;5078407;28;20027;-78
2022/10/04 03:53:34;;;;;;;7.32;4.93;;;;;;;14.10;100.00;100952.56;5025014;28;20078;-78
2022/10/04 03:55:59;;;;;;;9.57;5.18;;;;;;;14.11;100.00;100950.59;5062376;28;20076;-78
2022/10/04 03:58:26;;;;;;;8.23;5.57;;;;;;;14.07;100.00;100944.78;5051326;28;20104;-78
2022/10/04 04:00:57;;;;;;;6.72;5.30;;;;;;;14.07;100.00;100948.41;5081713;28;20490;-78
2022/10/04 04:03:23;;;;;;;6.50;4.65;;;;;;;14.07;100.00;100947.59;5098036;28;20032;-78
2022/10/04 04:05:52;;;;;;;5.95;3.83;;;;;;;14.05;100.00;100944.25;5061641;28;20035;-78
2022/10/04 04:08:27;;;;;;;9.35;4.60;;;;;;;14.03;100.00;100947.34;5095789;28;20034;-78
2022/10/04 04:10:57;;;;;;;7.93;4.60;;;;;;;14.04;100.00;100942.59;5045618;28;20040;-78
2022/10/04 04:13:35;;;;;;;6.55;5.43;;;;;;;14.04;100.00;100932.28;5041138;28;20051;-78
2022/10/04 04:16:00;;;;;;;7.47;4.88;;;;;;;14.03;100.00;100943.72;5087857;28;20028;-78
2022/10/04 04:18:31;;;;;;;6.22;4.68;;;;;;;14.03;100.00;100944.56;5077751;28;20040;-78
2022/10/04 04:20:57;;;;;;;6.03;4.50;;;;;;;14.01;100.00;100944.06;5051697;28;20471;-78
2022/10/04 04:23:54;;;;;;;5.90;4.50;;;;;;;14.01;100.00;100940.41;5061530;28;20051;-78
2022/10/04 04:26:23;;;;;;;7.15;4.00;;;;;;;14.00;100.00;100935.97;5059578;28;20430;-78
2022/10/04 04:28:50;;;;;;;8.55;5.75;;;;;;;14.02;100.00;100940.13;5096311;28;20036;-78
2022/10/04 04:31:21;;;;;;;6.10;5.43;;;;;;;14.01;100.00;100944.06;5044770;28;20107;-78
2022/10/04 04:34:00;;;;;;;6.40;5.10;;;;;;;14.00;100.00;100945.16;5078296;28;20035;-78
2022/10/04 04:36:27;;;;;;;6.28;4.40;;;;;;;13.97;100.00;100956.97;5031935;28;20447;-78
2022/10/04 04:41:37;;;;;;;7.57;5.15;;;;;;;13.99;100.00;100953.88;5073738;28;20038;-77
2022/10/04 04:44:02;;;;;;;5.25;4.30;;;;;;;13.98;100.00;100953.03;5064854;28;20043;-77
2022/10/04 04:46:28;;;;;;;9.25;6.05;;;;;;;13.97;100.00;100951.38;5074594;28;20021;-78
2022/10/04 04:49:03;;;;;;;10.32;6.15;;;;;;;13.96;100.00;100944.16;5086880;28;20033;-78
2022/10/04 04:51:30;;;;;;;7.38;5.28;;;;;;;13.98;100.00;100933.47;5083736;28;20038;-77
2022/10/04 04:53:55;;;;;;;10.57;6.05;;;;;;;13.95;100.00;100934.09;5048141;28;20124;-78
2022/10/04 04:56:25;;;;;;;7.53;5.30;;;;;;;13.94;100.00;100934.41;5047859;28;20194;-78
2022/10/04 04:58:52;;;;;;;10.52;6.35;;;;;;;13.94;100.00;100928.81;5031426;28;20089;-78
2022/10/04 05:01:44;;;;;;;10.40;6.20;;;;;;;13.93;100.00;100928.00;5081397;28;20054;-78
2022/10/04 05:04:12;;;;;;;7.85;6.03;;;;;;;13.90;100.00;100934.22;5041149;28;20071;-78
2022/10/04 05:06:45;;;;;;;8.20;6.35;;;;;;;13.88;100.00;100924.47;5098970;28;20063;-78
2022/10/04 05:09:34;;;;;;;10.80;6.90;;;;;;;13.91;100.00;100915.47;5080670;28;20081;-78
2022/10/04 05:12:09;;;;;;;8.68;7.13;;;;;;;13.89;100.00;100912.97;5047361;28;20050;-78
2022/10/04 05:14:39;;;;;;;9.27;6.80;;;;;;;13.88;100.00;100911.34;5038896;28;20020;-78
2022/10/04 05:17:05;;;;;;;8.25;6.82;;;;;;;13.88;100.00;100911.34;5040747;28;20060;-78
2022/10/04 05:19:32;;;;;;;8.40;7.10;;;;;;;13.86;100.00;100906.06;5021333;28;20474;-78
2022/10/04 05:22:00;;;;;;;13.40;7.72;;;;;;;13.88;100.00;100905.75;5014912;28;20116;-77
2022/10/04 05:24:27;;;;;;;14.68;8.15;;;;;;;13.86;100.00;100908.03;5040816;28;20036;-77
2022/10/04 05:27:13;;;;;;;11.50;7.57;;;;;;;13.86;100.00;100897.69;5008266;28;20051;-77
2022/10/04 05:29:39;;;;;;;12.20;9.30;;;;;;;13.85;100.00;100893.25;5031033;28;20068;-78
2022/10/04 05:32:20;;;;;;;9.00;7.38;;;;;;;13.84;100.00;100901.91;5093166;28;20036;-78
2022/10/04 05:34:47;;;;;;;11.15;8.63;;;;;;;13.85;100.00;100906.38;5040411;28;20032;-77
2022/10/04 05:37:44;;;;;;;12.00;7.57;;;;;;;13.84;100.00;100907.50;5007436;28;20520;-78
2022/10/04 05:40:10;;;;;;;8.02;6.88;;;;;;;13.84;100.00;100915.88;5023908;28;20139;-78
2022/10/04 05:42:38;;;;;;;10.98;8.43;;;;;;;13.84;100.00;100910.28;5058455;28;20060;-78
2022/10/04 05:45:30;;;;;;;13.65;10.10;;;;;;;13.80;100.00;100914.84;5024034;28;20040;-78
2022/10/04 05:47:56;;;;;;;9.57;7.97;;;;;;;13.77;100.00;100916.28;5043548;28;20064;-78
2022/10/04 05:50:29;;;;;;;10.68;8.40;;;;;;;13.81;100.00;100908.09;5015063;28;20032;-78
2022/10/04 05:53:25;;;;;;;10.48;8.23;;;;;;;13.80;100.00;100912.03;5048152;28;20032;-78
2022/10/04 05:56:00;;;;;;;11.25;7.60;;;;;;;13.78;100.00;100915.13;5026683;28;20045;-78
2022/10/04 05:58:32;;;;;;;10.93;8.68;;;;;;;13.75;100.00;100932.50;5057464;28;20044;-78
2022/10/04 06:01:02;;;;;;;9.50;7.38;;;;;;;13.74;100.00;100924.44;5032939;28;20374;-78
2022/10/04 06:03:40;;;;;;;12.05;9.18;;;;;;;13.76;100.00;100928.59;5039797;28;20035;-78
2022/10/04 06:06:34;;;;;;;12.23;10.43;;;;;;;13.76;100.00;100924.94;5039860;28;20075;-78
2022/10/04 06:09:19;;;;;;;13.10;8.48;;;;;;;13.76;100.00;100930.53;5039619;28;20156;-78
2022/10/04 06:12:06;;;;;;;9.65;7.15;;;;;;;13.76;100.00;100927.72;5058544;28;20145;-78
2022/10/04 06:14:47;;;;;;;11.52;9.10;;;;;;;13.74;100.00;100922.47;5055136;28;20029;-78
2022/10/04 06:17:33;;;;;;;10.32;8.50;;;;;;;13.75;100.00;100924.13;5047761;28;20097;-78
2022/10/04 06:20:01;;;;;;;11.23;8.32;;;;;;;13.71;100.00;100939.00;5060690;28;20036;-78
2022/10/04 06:22:27;;;;;;;10.60;8.32;;;;;;;13.75;100.00;100940.03;5086107;28;20058;-78
2022/10/04 06:25:04;;;;;;;9.73;7.78;;;;;;;13.72;100.00;100951.81;5059592;28;20025;-78
2022/10/04 06:27:32;;;;;;;9.95;8.40;;;;;;;13.75;100.00;100962.38;5028023;28;20033;-74
2022/10/04 06:30:05;;;;;;;9.65;7.60;;;;;;;13.73;100.00;100959.03;5078001;28;20039;-78
2022/10/04 06:33:04;;;;;;;9.10;7.45;;;;;;;13.73;100.00;100970.22;5015283;28;20037;-78
2022/10/04 06:35:41;;;;;;;9.45;6.82;;;;;;;13.74;100.00;100969.91;5059846;28;20099;-78
2022/10/04 06:38:32;;;;;;;12.00;7.72;;;;;;;13.73;100.00;100975.78;5042512;28;20028;-78
2022/10/04 06:41:10;;;;;;;8.35;6.88;;;;;;;13.75;100.00;100967.94;5065876;28;20400;-78
2022/10/04 06:43:56;;;;;;;9.85;7.68;;;;;;;13.76;100.00;100969.59;5042346;28;20039;-77
2022/10/04 06:47:00;;;;;;;10.18;7.40;;;;;;;13.77;100.00;100962.91;5037833;28;20120;-78
2022/10/04 06:49:45;;;;;;;9.95;8.05;;;;;;;13.76;100.00;100964.88;5041199;28;20080;-77
2022/10/04 06:52:35;;;;;;;11.50;8.73;;;;;;;13.77;100.00;100962.91;5024120;28;20086;-78
2022/10/04 06:55:42;;;;;;;10.60;7.75;;;;;;;13.78;100.00;100958.97;5076771;28;20024;-78
2022/10/04 06:58:27;;;;;;;10.80;7.85;;;;;;;13.76;100.00;100953.69;5029070;28;20100;-78
2022/10/04 07:00:55;;;;;;;11.82;7.60;;;;;;;13.78;100.00;100961.75;5046018;28;20047;-78
2022/10/04 07:03:53;;;;;;;12.65;10.07;;;;;;;13.81;100.00;100966.72;5083152;28;20058;-78
2022/10/04 07:06:41;;;;;;;11.02;9.23;;;;;;;13.80;100.00;100965.91;5040744;28;20051;-78
2022/10/04 07:09:11;;;;;;;11.68;8.30;;;;;;;13.82;100.00;100969.22;5032628;28;20051;-77
2022/10/04 07:11:56;;;;;;;11.23;8.60;;;;;;;13.84;100.00;100960.53;5069193;28;20036;-78
2022/10/04 07:14:32;;;;;;;10.93;8.70;;;;;;;13.84;100.00;100960.53;5025694;28;20469;-78
2022/10/04 07:17:04;;;;;;;11.88;9.30;;;;;;;13.86;100.00;100963.84;5042148;28;20029;-78
2022/10/04 07:19:47;;;;;;;13.83;8.90;;;;;;;13.87;100.00;100959.91;5026289;28;20032;-77
2022/10/04 07:22:16;;;;;;;;;;;;;;;13.91;100.00;100966.56;5025640;28;20028;-77
2022/10/04 07:25:19;;;;;;;17.65;11.32;;;;;;;13.94;100.00;100971.53;5041876;28;19912;-77
2022/10/04 07:30:53;;;;;;;13.10;9.27;;;;;;;13.95;100.00;100978.78;5044803;28;20035;-78
2022/10/04 07:33:21;;;;;;;15.75;10.32;;;;;;;13.98;100.00;100978.16;5049505;28;20027;-78
2022/10/04 07:35:49;;;;;;;15.40;9.75;;;;;;;14.00;100.00;100980.66;5028524;28;20047;-77
2022/10/04 07:38:19;;;;;;;15.73;9.07;;;;;;;14.02;100.00;100981.19;5047163;28;20037;-78
2022/10/04 07:41:07;;;;;;;13.32;9.48;;;;;;;14.04;100.00;100985.34;5041541;28;20107;-77
2022/10/04 07:43:39;;;;;;;15.05;9.00;;;;;;;14.07;100.00;100981.94;5057394;28;20032;-78
2022/10/04 07:46:13;;;;;;;12.00;7.53;;;;;;;14.08;100.00;100989.16;5054110;28;20033;-78
2022/10/04 07:48:39;;;;;;;14.65;7.43;;;;;;;14.11;100.00;100981.31;5057522;28;20056;-77
2022/10/04 07:51:30;;;;;;;11.25;7.18;;;;;;;14.13;100.00;100971.50;5038398;28;20067;-78
2022/10/04 07:54:11;;;;;;;11.10;7.20;;;;;;;14.15;100.00;100965.59;5069955;28;20013;-78
2022/10/04 07:56:40;;;;;;;11.68;7.80;;;;;;;14.18;100.00;100965.81;5043283;28;20398;-78
2022/10/04 07:59:25;;;;;;;12.25;6.57;;;;;;;14.21;100.00;100969.97;5025624;28;20032;-77
2022/10/04 08:02:05;;;;;;;14.13;8.13;;;;;;;14.22;100.00;100968.81;5031696;28;20413;-78
2022/10/04 08:04:31;;;;;;;10.77;5.82;;;;;;;14.26;100.00;100967.91;5031758;28;20040;-77
2022/10/04 08:06:57;;;;;;;9.23;5.85;;;;;;;14.30;100.00;100968.09;5071263;28;20029;-78
2022/10/04 08:09:42;;;;;;;10.05;6.30;;;;;;;14.33;100.00;100967.50;5058128;28;20028;-77
2022/10/04 08:12:27;;;;;;;14.10;7.60;;;;;;;14.38;100.00;100978.56;5050426;28;20052;-77
2022/10/04 08:15:27;;;;;;;9.00;5.40;;;;;;;14.42;100.00;100981.56;5058250;28;20032;-78
2022/10/04 08:18:00;;;;;;;12.48;6.35;;;;;;;14.46;100.00;100980.66;5026963;28;20040;-78
2022/10/04 08:20:56;;;;;;;9.80;5.10;;;;;;;14.52;100.00;100981.41;5011129;28;20024;-78
2022/10/04 08:23:36;;;;;;;8.57;5.10;;;;;;;14.57;100.00;100983.25;5016678;28;20499;-78
2022/10/04 08:26:14;;;;;;;9.52;5.30;;;;;;;14.62;100.00;100986.78;5079620;28;20039;-78
2022/10/04 08:32:24;;;;;;;7.60;4.50;;;;;;;14.75;100.00;100987.94;5047030;28;20086;-78
2022/10/04 08:34:54;;;;;;;6.93;4.30;;;;;;;14.82;100.00;100979.97;5049758;28;20032;-78
2022/10/04 08:37:43;;;;;;;10.27;5.10;;;;;;;14.89;100.00;100985.13;5044924;28;20044;-77
2022/10/04 08:40:27;;;;;;;7.05;4.13;;;;;;;14.96;100.00;100980.78;5028854;28;20036;-77
2022/10/04 08:43:10;;;;;;;7.40;3.95;;;;;;;15.03;100.00;100985.97;5061158;28;20047;-77
2022/10/04 08:45:57;;;;;;;7.93;4.40;;;;;;;15.12;100.00;100988.84;5064102;28;20037;-78
2022/10/04 08:48:29;;;;;;;6.20;3.78;;;;;;;15.21;100.00;100992.56;5069259;28;20044;-78
2022/10/04 08:51:03;;;;;;;9.55;3.63;;;;;;;15.30;100.00;100979.50;5060972;28;20043;-78
2022/10/04 08:53:47;;;;;;;8.52;3.30;;;;;;;15.38;100.00;100975.94;5061096;28;20064;-77
2022/10/04 08:56:40;;;;;;;6.93;3.45;;;;;;;15.51;100.00;100991.03;5048758;28;20056;-77
2022/10/04 08:59:06;;;;;;;;;;;;;;;15.61;100.00;100984.38;5061660;28;20036;-77
2022/10/04 09:02:05;;;;;;;4.00;2.40;;;;;;;15.70;100.00;100990.91;5079034;28;19912;-78
2022/10/04 09:04:53;;;;;;;5.72;2.58;;;;;;;15.79;100.00;100988.97;5065748;28;20044;-78
2022/10/04 09:07:38;;;;;;;4.03;2.13;;;;;;;15.85;100.00;100986.88;5040351;28;20594;-78
2022/10/04 09:10:12;;;;;;;3.22;1.50;;;;;;;15.91;100.00;100999.66;5049061;28;20493;-78
2022/10/04 09:12:51;;;;;;;3.08;1.38;;;;;;;15.97;100.00;101003.97;5065312;28;20036;-78
2022/10/04 09:15:39;;;;;;;4.47;1.27;;;;;;;16.00;100.00;101002.50;5069762;28;20028;-78
2022/10/04 09:18:31;;;;;;;3.15;1.10;;;;;;;16.05;100.00;101010.78;5055455;28;20058;-78
2022/10/04 09:21:10;;;;;;;2.77;1.00;;;;;;;16.09;100.00;101007.00;5044196;28;20036;-78
2022/10/04 09:23:44;;;;;;;2.20;1.00;;;;;;;16.14;100.00;101000.44;5043887;28;20274;-78
2022/10/04 09:26:42;;;;;;;3.40;0.90;;;;;;;16.23;100.00;101006.94;5060536;28;20055;-78
2022/10/04 09:29:20;;;;;;;2.78;1.00;;;;;;;16.33;100.00;101000.25;5030566;28;20025;-78
2022/10/04 09:31:48;;;;;;;1.40;0.98;;;;;;;16.39;100.00;100998.13;5055422;28;20116;-78
2022/10/04 09:34:22;;;;;;;1.88;0.70;;;;;;;16.47;100.00;101002.97;5078290;28;20111;-78
2022/10/04 09:37:06;;;;;;;1.40;0.63;;;;;;;16.54;100.00;101003.31;5043586;28;20103;-78
2022/10/04 09:40:13;;;;;;;1.20;0.60;;;;;;;16.63;100.00;101007.00;5059982;28;20036;-78
2022/10/04 09:42:41;;;;;;;2.13;0.63;;;;;;;16.72;100.00;101001.44;5063333;28;20476;-78
2022/10/04 09:45:10;;;;;;;2.28;0.70;;;;;;;16.81;100.00;101007.09;5043525;28;20033;-78
2022/10/04 09:47:54;;;;;;;1.38;0.60;;;;;;;16.88;100.00;101005.47;5064759;28;20433;-78
2022/10/04 09:50:23;;;;;;;4.50;0.77;;;;;;;16.99;100.00;101003.19;5056863;28;20051;-78
2022/10/04 09:53:19;;;;;;;0.85;0.50;;;;;;;17.07;100.00;101005.19;5063034;28;20493;-78
2022/10/04 09:56:03;;;;;;;1.48;0.60;;;;;;;17.18;100.00;101000.91;5056286;28;20396;-79
2022/10/04 09:59:17;;;;;;;2.78;0.57;;;;;;;17.30;100.00;101016.28;5066710;28;20033;-78
2022/10/04 10:02:11;;;;;;;1.88;0.75;;;;;;;17.40;100.00;101007.56;5059447;28;20539;-79
2022/10/04 10:04:48;;;;;;;3.67;0.60;;;;;;;17.56;100.00;101002.31;5060767;28;20039;-78
2022/10/04 10:07:26;;;;;;;1.02;0.40;;;;;;;17.67;100.00;101002.81;5058202;28;20067;-78
2022/10/04 10:16:05;;;;;;;1.92;0.40;;;;;;;17.99;99.73;100999.50;5059729;28;20370;-78
2022/10/04 10:18:34;;;;;;;1.42;0.40;;;;;;;18.05;99.04;101005.78;5059515;28;20551;-78
2022/10/04 10:21:21;;;;;;;1.45;0.45;;;;;;;18.09;98.36;101010.41;5077745;28;20056;-78
2022/10/04 10:24:08;;;;;;;0.70;0.30;;;;;;;18.19;98.64;101020.50;5064293;28;20436;-78
2022/10/04 10:26:53;;;;;;;1.13;0.20;;;;;;;18.24;98.98;101019.47;5057569;28;20056;-78
2022/10/04 10:29:43;;;;;;;3.70;0.40;;;;;;;18.29;98.09;101014.50;5058253;28;20036;-78
2022/10/04 10:32:30;;;;;;;1.30;0.30;;;;;;;18.34;97.66;101015.50;5036282;28;20389;-78
2022/10/04 10:34:59;;;;;;;2.20;0.50;;;;;;;18.39;97.21;101013.34;5059331;28;20017;-78
2022/10/04 10:37:39;;;;;;;2.60;0.30;;;;;;;18.43;97.69;101003.06;5042106;28;20163;-78
2022/10/04 10:40:27;;;;;;;1.98;0.45;;;;;;;18.49;96.59;101012.97;5027538;28;20040;-78
2022/10/04 10:43:17;;;;;;;2.90;0.45;;;;;;;18.56;96.78;101003.19;5042792;28;20032;-78
2022/10/04 10:45:48;;;;;;;1.42;0.40;;;;;;;18.62;96.12;101005.47;5026585;28;20496;-78
2022/10/04 10:48:20;;;;;;;1.38;0.38;;;;;;;18.68;95.85;101004.13;5055913;28;20043;-78
2022/10/04 10:51:02;;;;;;;2.55;0.40;;;;;;;18.74;95.02;101002.00;5026657;28;20093;-79
2022/10/04 10:54:04;;;;;;;1.33;0.40;;;;;;;18.81;94.27;100996.66;5043632;28;20036;-79
2022/10/04 10:56:34;;;;;;;0.60;0.20;;;;;;;18.86;93.99;100990.88;5066908;28;20036;-79
2022/10/04 10:59:15;;;;;;;1.42;0.40;;;;;;;18.91;93.38;100993.47;5026074;28;20056;-78
2022/10/04 11:01:58;;;;;;;1.70;0.60;;;;;;;18.94;93.56;100994.78;5066363;28;20127;-78
2022/10/04 11:04:42;;;;;;;1.45;0.50;;;;;;;18.97;93.42;100992.13;5042126;28;20028;-78
2022/10/04 11:07:26;;;;;;;3.05;0.50;;;;;;;19.00;92.96;100984.16;5043348;28;20029;-79
2022/10/04 11:10:13;;;;;;;2.03;0.43;;;;;;;18.97;93.24;100983.69;5075874;28;20082;-79
2022/10/04 11:12:56;;;;;;;4.30;0.50;;;;;;;19.03;92.96;100989.09;5053407;28;20047;-79
2022/10/04 11:16:03;;;;;;;0.93;0.38;;;;;;;19.07;92.79;100982.44;5058140;28;20385;-79
2022/10/04 11:18:40;;;;;;;1.80;0.50;;;;;;;19.09;91.68;100980.13;5020116;28;20043;-78
2022/10/04 11:21:25;;;;;;;1.17;0.40;;;;;;;19.13;92.37;100981.09;5060025;28;20127;-78
2022/10/04 11:24:19;;;;;;;1.52;0.50;;;;;;;19.20;92.61;100972.94;5031907;28;20032;-78
2022/10/04 11:26:56;;;;;;;1.13;0.50;;;;;;;19.25;92.17;100988.81;5040042;28;20043;-78
2022/10/04 11:29:31;;;;;;;1.33;0.50;;;;;;;19.33;91.69;100982.28;5041281;28;20032;-78
2022/10/04 11:32:00;;;;;;;2.08;0.70;;;;;;;19.39;90.83;100986.56;5039580;28;20033;-78
2022/10/04 11:34:46;;;;;;;1.20;0.70;;;;;;;19.47;90.43;100989.63;5059454;28;20051;-78
2022/10/04 11:37:22;;;;;;;5.68;0.93;;;;;;;19.52;89.93;100992.25;5075970;28;20090;-78
2022/10/04 11:40:09;;;;;;;1.02;0.60;;;;;;;19.57;90.06;100994.88;5041764;28;20056;-78
2022/10/04 11:42:38;;;;;;;1.08;0.60;;;;;;;19.61;89.51;100987.38;5058256;28;20358;-79
2022/10/04 11:45:32;;;;;;;2.45;0.52;;;;;;;19.63;89.20;100985.03;5040707;28;20558;-79
2022/10/04 11:48:10;;;;;;;0.82;0.40;;;;;;;19.65;88.16;100988.34;5028803;28;20040;-78
2022/10/04 11:51:02;;;;;;;0.80;0.40;;;;;;;19.67;88.01;100993.66;5082500;28;20040;-79
2022/10/04 11:53:40;;;;;;;2.15;0.50;;;;;;;19.67;88.30;100982.38;5082706;28;20028;-79
2022/10/04 11:56:22;;;;;;;2.13;0.32;;;;;;;19.68;88.07;100981.22;5030962;28;20039;-79
2022/10/04 11:59:24;;;;;;;0.88;0.30;;;;;;;19.67;87.47;100986.06;5066269;28;20503;-78
2022/10/04 12:02:08;;;;;;;1.88;0.30;;;;;;;19.67;86.26;100979.56;5032454;28;20488;-79
2022/10/04 12:04:42;;;;;;;0.50;0.30;;;;;;;19.63;86.51;100980.22;5052526;28;20564;-78
2022/10/04 12:07:23;;;;;;;0.50;0.28;;;;;;;19.62;86.26;100974.94;5045167;28;20033;-78
2022/10/04 12:10:16;;;;;;;0.50;0.30;;;;;;;19.59;85.59;100978.47;5071647;28;20388;-78
2022/10/04 12:13:00;;;;;;;;;;;;;;;19.53;85.97;100972.22;5053997;28;20037;-78
2022/10/04 12:15:59;;;;;;;0.57;0.30;;;;;;;19.47;85.67;100969.91;5067015;28;19955;-78
2022/10/04 12:18:40;;;;;;;1.40;0.30;;;;;;;19.41;85.80;100970.13;5079695;28;20039;-78
2022/10/04 12:21:27;;;;;;;0.28;0.28;;;;;;;19.34;86.21;100964.22;5054649;28;20047;-78